sensor_id;sensor_type;location;lat;lon;timestamp;P1;durP1;ratioP1;P2;durP2;ratioP2
34767;SDS011;21755;43.608;1.236;2022-08-01T00:00:42;4.15;;;2.22;;
34767;SDS011;21755;43.608;1.236;2022-08-01T00:03:08;3.90;;;1.60;;
34767;SDS011;21755;43.608;1.236;2022-08-01T00:05:34;2.80;;;2.22;;
34767;SDS011;21755;43.608;1.236;2022-08-01T00:08:00;4.43;;;2.20;;
34767;SDS011;21755;43.608;1.236;2022-08-01T00:10:26;6.22;;;2.05;;
34767;SDS011;21755;43.608;1.236;2022-08-01T00:12:52;3.80;;;2.33;;
34767;SDS011;21755;43.608;1.236;2022-08-01T00:15:18;3.65;;;2.05;;
34767;SDS011;21755;43.608;1.236;2022-08-01T00:17:44;2.25;;;1.88;;
34767;SDS011;21755;43.608;1.236;2022-08-01T00:20:11;3.42;;;2.60;;
34767;SDS011;21755;43.608;1.236;2022-08-01T00:22:38;14.95;;;2.35;;
34767;SDS011;21755;43.608;1.236;2022-08-01T00:25:04;2.88;;;2.33;;
34767;SDS011;21755;43.608;1.236;2022-08-01T00:27:31;8.02;;;2.50;;
34767;SDS011;21755;43.608;1.236;2022-08-01T00:29:57;4.28;;;1.95;;
34767;SDS011;21755;43.608;1.236;2022-08-01T00:32:23;5.43;;;2.20;;
34767;SDS011;21755;43.608;1.236;2022-08-01T00:34:50;4.88;;;2.13;;
34767;SDS011;21755;43.608;1.236;2022-08-01T00:37:16;4.30;;;2.40;;
34767;SDS011;21755;43.608;1.236;2022-08-01T00:39:42;2.60;;;2.40;;
34767;SDS011;21755;43.608;1.236;2022-08-01T00:42:09;6.35;;;2.65;;
34767;SDS011;21755;43.608;1.236;2022-08-01T00:44:36;5.05;;;2.42;;
34767;SDS011;21755;43.608;1.236;2022-08-01T00:47:03;2.90;;;2.60;;
34767;SDS011;21755;43.608;1.236;2022-08-01T00:49:30;6.57;;;2.80;;
34767;SDS011;21755;43.608;1.236;2022-08-01T00:51:56;3.25;;;2.95;;
34767;SDS011;21755;43.608;1.236;2022-08-01T00:54:24;6.60;;;2.70;;
34767;SDS011;21755;43.608;1.236;2022-08-01T00:56:51;3.58;;;2.83;;
34767;SDS011;21755;43.608;1.236;2022-08-01T00:59:18;6.15;;;2.88;;
34767;SDS011;21755;43.608;1.236;2022-08-01T01:01:47;4.10;;;2.85;;
34767;SDS011;21755;43.608;1.236;2022-08-01T01:04:14;4.55;;;2.70;;
34767;SDS011;21755;43.608;1.236;2022-08-01T01:17:37;5.72;;;3.00;;
34767;SDS011;21755;43.608;1.236;2022-08-01T01:20:07;3.30;;;3.00;;
34767;SDS011;21755;43.608;1.236;2022-08-01T01:22:47;4.45;;;2.65;;
34767;SDS011;21755;43.608;1.236;2022-08-01T01:25:25;4.68;;;2.45;;
34767;SDS011;21755;43.608;1.236;2022-08-01T01:31:15;12.27;;;3.10;;
34767;SDS011;21755;43.608;1.236;2022-08-01T01:33:45;4.93;;;2.50;;
34767;SDS011;21755;43.608;1.236;2022-08-01T01:36:13;4.80;;;2.58;;
34767;SDS011;21755;43.608;1.236;2022-08-01T01:38:43;6.57;;;3.13;;
34767;SDS011;21755;43.608;1.236;2022-08-01T01:41:11;3.10;;;2.80;;
34767;SDS011;21755;43.608;1.236;2022-08-01T01:43:39;6.65;;;2.47;;
34767;SDS011;21755;43.608;1.236;2022-08-01T01:46:06;3.97;;;2.85;;
34767;SDS011;21755;43.608;1.236;2022-08-01T01:48:34;4.32;;;2.65;;
34767;SDS011;21755;43.608;1.236;2022-08-01T01:51:01;2.85;;;2.40;;
34767;SDS011;21755;43.608;1.236;2022-08-01T01:53:30;3.97;;;3.08;;
34767;SDS011;21755;43.608;1.236;2022-08-01T01:55:59;3.03;;;2.40;;
34767;SDS011;21755;43.608;1.236;2022-08-01T01:58:27;5.72;;;2.58;;
34767;SDS011;21755;43.608;1.236;2022-08-01T02:00:55;6.13;;;3.10;;
34767;SDS011;21755;43.608;1.236;2022-08-01T02:03:23;4.45;;;3.05;;
34767;SDS011;21755;43.608;1.236;2022-08-01T02:05:51;6.85;;;2.95;;
34767;SDS011;21755;43.608;1.236;2022-08-01T02:08:19;3.22;;;2.63;;
34767;SDS011;21755;43.608;1.236;2022-08-01T02:10:48;4.82;;;2.90;;
34767;SDS011;21755;43.608;1.236;2022-08-01T02:13:36;3.42;;;2.85;;
34767;SDS011;21755;43.608;1.236;2022-08-01T02:16:03;3.45;;;2.63;;
34767;SDS011;21755;43.608;1.236;2022-08-01T02:18:31;4.93;;;2.30;;
34767;SDS011;21755;43.608;1.236;2022-08-01T02:20:57;4.35;;;2.97;;
34767;SDS011;21755;43.608;1.236;2022-08-01T02:23:27;4.47;;;2.80;;
34767;SDS011;21755;43.608;1.236;2022-08-01T02:25:57;6.68;;;3.03;;
34767;SDS011;21755;43.608;1.236;2022-08-01T02:28:28;5.78;;;2.70;;
34767;SDS011;21755;43.608;1.236;2022-08-01T02:31:00;3.33;;;2.60;;
34767;SDS011;21755;43.608;1.236;2022-08-01T02:33:39;6.63;;;2.70;;
34767;SDS011;21755;43.608;1.236;2022-08-01T02:36:08;4.10;;;2.70;;
34767;SDS011;21755;43.608;1.236;2022-08-01T02:38:37;4.22;;;2.97;;
34767;SDS011;21755;43.608;1.236;2022-08-01T02:41:11;3.53;;;2.90;;
34767;SDS011;21755;43.608;1.236;2022-08-01T02:43:40;9.50;;;2.85;;
34767;SDS011;21755;43.608;1.236;2022-08-01T02:46:13;4.15;;;3.15;;
34767;SDS011;21755;43.608;1.236;2022-08-01T02:48:45;4.50;;;3.20;;
34767;SDS011;21755;43.608;1.236;2022-08-01T02:51:12;5.50;;;3.33;;
34767;SDS011;21755;43.608;1.236;2022-08-01T02:53:41;7.28;;;2.72;;
34767;SDS011;21755;43.608;1.236;2022-08-01T02:56:09;5.45;;;3.00;;
34767;SDS011;21755;43.608;1.236;2022-08-01T02:58:36;6.22;;;3.30;;
34767;SDS011;21755;43.608;1.236;2022-08-01T03:01:06;4.30;;;2.95;;
34767;SDS011;21755;43.608;1.236;2022-08-01T03:03:33;4.22;;;3.00;;
34767;SDS011;21755;43.608;1.236;2022-08-01T03:05:59;10.07;;;3.40;;
34767;SDS011;21755;43.608;1.236;2022-08-01T03:08:28;6.93;;;3.08;;
34767;SDS011;21755;43.608;1.236;2022-08-01T03:10:55;5.00;;;2.75;;
34767;SDS011;21755;43.608;1.236;2022-08-01T03:13:24;7.45;;;3.17;;
34767;SDS011;21755;43.608;1.236;2022-08-01T03:15:52;5.60;;;3.00;;
34767;SDS011;21755;43.608;1.236;2022-08-01T03:18:19;5.18;;;2.78;;
34767;SDS011;21755;43.608;1.236;2022-08-01T03:20:48;5.45;;;2.92;;
34767;SDS011;21755;43.608;1.236;2022-08-01T03:23:16;3.90;;;2.95;;
34767;SDS011;21755;43.608;1.236;2022-08-01T03:25:43;5.30;;;3.00;;
34767;SDS011;21755;43.608;1.236;2022-08-01T03:28:12;6.90;;;3.13;;
34767;SDS011;21755;43.608;1.236;2022-08-01T03:30:41;3.65;;;2.80;;
34767;SDS011;21755;43.608;1.236;2022-08-01T03:33:09;4.75;;;2.88;;
34767;SDS011;21755;43.608;1.236;2022-08-01T03:35:48;5.25;;;3.03;;
34767;SDS011;21755;43.608;1.236;2022-08-01T03:38:19;4.72;;;3.35;;
34767;SDS011;21755;43.608;1.236;2022-08-01T03:40:51;7.55;;;2.80;;
34767;SDS011;21755;43.608;1.236;2022-08-01T03:43:30;6.95;;;2.97;;
34767;SDS011;21755;43.608;1.236;2022-08-01T03:46:01;4.68;;;3.17;;
34767;SDS011;21755;43.608;1.236;2022-08-01T03:48:33;8.20;;;3.08;;
34767;SDS011;21755;43.608;1.236;2022-08-01T03:51:04;7.28;;;2.90;;
34767;SDS011;21755;43.608;1.236;2022-08-01T03:53:32;6.07;;;2.90;;
34767;SDS011;21755;43.608;1.236;2022-08-01T03:56:00;6.45;;;2.85;;
34767;SDS011;21755;43.608;1.236;2022-08-01T03:58:30;5.88;;;2.97;;
34767;SDS011;21755;43.608;1.236;2022-08-01T04:00:57;7.60;;;2.95;;
34767;SDS011;21755;43.608;1.236;2022-08-01T04:03:23;7.32;;;2.80;;
34767;SDS011;21755;43.608;1.236;2022-08-01T04:05:49;5.45;;;2.78;;
34767;SDS011;21755;43.608;1.236;2022-08-01T04:08:15;5.90;;;2.25;;
34767;SDS011;21755;43.608;1.236;2022-08-01T04:10:41;3.97;;;2.60;;
34767;SDS011;21755;43.608;1.236;2022-08-01T04:13:07;10.85;;;2.55;;
34767;SDS011;21755;43.608;1.236;2022-08-01T04:15:34;5.13;;;2.63;;
34767;SDS011;21755;43.608;1.236;2022-08-01T04:18:00;7.82;;;2.83;;
34767;SDS011;21755;43.608;1.236;2022-08-01T04:20:26;5.03;;;3.10;;
34767;SDS011;21755;43.608;1.236;2022-08-01T04:22:52;5.20;;;2.55;;
34767;SDS011;21755;43.608;1.236;2022-08-01T04:25:33;9.80;;;2.97;;
34767;SDS011;21755;43.608;1.236;2022-08-01T04:28:02;6.65;;;2.38;;
34767;SDS011;21755;43.608;1.236;2022-08-01T04:30:31;5.95;;;3.45;;
34767;SDS011;21755;43.608;1.236;2022-08-01T04:33:00;7.15;;;3.30;;
34767;SDS011;21755;43.608;1.236;2022-08-01T04:35:30;6.05;;;3.08;;
34767;SDS011;21755;43.608;1.236;2022-08-01T04:37:57;4.90;;;2.72;;
34767;SDS011;21755;43.608;1.236;2022-08-01T04:40:26;6.32;;;3.00;;
34767;SDS011;21755;43.608;1.236;2022-08-01T04:42:53;6.53;;;3.03;;
34767;SDS011;21755;43.608;1.236;2022-08-01T04:45:20;9.55;;;2.95;;
34767;SDS011;21755;43.608;1.236;2022-08-01T04:47:48;6.50;;;2.50;;
34767;SDS011;21755;43.608;1.236;2022-08-01T04:50:14;6.13;;;3.45;;
34767;SDS011;21755;43.608;1.236;2022-08-01T04:52:41;4.70;;;2.90;;
34767;SDS011;21755;43.608;1.236;2022-08-01T04:55:07;4.97;;;3.10;;
34767;SDS011;21755;43.608;1.236;2022-08-01T04:57:35;4.68;;;3.17;;
34767;SDS011;21755;43.608;1.236;2022-08-01T05:00:04;7.05;;;3.20;;
34767;SDS011;21755;43.608;1.236;2022-08-01T05:02:31;8.32;;;3.40;;
34767;SDS011;21755;43.608;1.236;2022-08-01T05:04:57;6.93;;;3.55;;
34767;SDS011;21755;43.608;1.236;2022-08-01T05:07:23;6.85;;;4.18;;
34767;SDS011;21755;43.608;1.236;2022-08-01T05:09:49;9.15;;;3.30;;
34767;SDS011;21755;43.608;1.236;2022-08-01T05:12:15;4.60;;;3.58;;
34767;SDS011;21755;43.608;1.236;2022-08-01T05:14:42;9.18;;;4.00;;
34767;SDS011;21755;43.608;1.236;2022-08-01T05:17:08;8.40;;;5.05;;
34767;SDS011;21755;43.608;1.236;2022-08-01T05:19:35;9.93;;;4.43;;
34767;SDS011;21755;43.608;1.236;2022-08-01T05:22:04;10.57;;;3.50;;
34767;SDS011;21755;43.608;1.236;2022-08-01T05:24:32;7.60;;;4.78;;
34767;SDS011;21755;43.608;1.236;2022-08-01T05:27:00;9.00;;;5.45;;
34767;SDS011;21755;43.608;1.236;2022-08-01T05:29:26;7.70;;;4.22;;
34767;SDS011;21755;43.608;1.236;2022-08-01T05:31:53;10.80;;;5.07;;
34767;SDS011;21755;43.608;1.236;2022-08-01T05:34:19;8.27;;;5.50;;
34767;SDS011;21755;43.608;1.236;2022-08-01T05:36:46;7.05;;;5.05;;
34767;SDS011;21755;43.608;1.236;2022-08-01T05:39:12;10.45;;;5.18;;
34767;SDS011;21755;43.608;1.236;2022-08-01T05:41:38;6.88;;;4.53;;
34767;SDS011;21755;43.608;1.236;2022-08-01T05:44:05;7.38;;;4.18;;
34767;SDS011;21755;43.608;1.236;2022-08-01T05:46:31;10.68;;;5.95;;
34767;SDS011;21755;43.608;1.236;2022-08-01T05:48:59;8.65;;;6.03;;
34767;SDS011;21755;43.608;1.236;2022-08-01T05:51:26;10.88;;;6.45;;
34767;SDS011;21755;43.608;1.236;2022-08-01T05:53:52;9.25;;;6.78;;
34767;SDS011;21755;43.608;1.236;2022-08-01T05:56:19;10.40;;;6.57;;
34767;SDS011;21755;43.608;1.236;2022-08-01T05:58:46;10.25;;;6.28;;
34767;SDS011;21755;43.608;1.236;2022-08-01T06:01:12;9.20;;;5.43;;
34767;SDS011;21755;43.608;1.236;2022-08-01T06:03:38;13.55;;;5.85;;
34767;SDS011;21755;43.608;1.236;2022-08-01T06:06:04;8.90;;;6.70;;
34767;SDS011;21755;43.608;1.236;2022-08-01T06:08:30;9.40;;;6.22;;
34767;SDS011;21755;43.608;1.236;2022-08-01T06:10:56;15.57;;;6.30;;
34767;SDS011;21755;43.608;1.236;2022-08-01T06:13:23;13.35;;;6.43;;
34767;SDS011;21755;43.608;1.236;2022-08-01T06:15:49;11.32;;;6.65;;
34767;SDS011;21755;43.608;1.236;2022-08-01T06:18:16;10.60;;;6.55;;
34767;SDS011;21755;43.608;1.236;2022-08-01T06:20:42;13.90;;;7.20;;
34767;SDS011;21755;43.608;1.236;2022-08-01T06:23:08;11.15;;;6.70;;
34767;SDS011;21755;43.608;1.236;2022-08-01T06:25:34;11.55;;;6.60;;
34767;SDS011;21755;43.608;1.236;2022-08-01T06:28:00;9.00;;;6.32;;
34767;SDS011;21755;43.608;1.236;2022-08-01T06:30:26;12.32;;;6.65;;
34767;SDS011;21755;43.608;1.236;2022-08-01T06:32:52;10.05;;;6.80;;
34767;SDS011;21755;43.608;1.236;2022-08-01T06:35:20;12.95;;;7.13;;
34767;SDS011;21755;43.608;1.236;2022-08-01T06:37:46;8.77;;;6.15;;
34767;SDS011;21755;43.608;1.236;2022-08-01T06:40:14;9.05;;;6.50;;
34767;SDS011;21755;43.608;1.236;2022-08-01T06:42:40;12.90;;;7.85;;
34767;SDS011;21755;43.608;1.236;2022-08-01T06:45:07;9.50;;;6.82;;
34767;SDS011;21755;43.608;1.236;2022-08-01T06:47:35;10.02;;;6.57;;
34767;SDS011;21755;43.608;1.236;2022-08-01T06:50:02;9.82;;;6.43;;
34767;SDS011;21755;43.608;1.236;2022-08-01T06:52:29;7.25;;;5.97;;
34767;SDS011;21755;43.608;1.236;2022-08-01T06:54:55;9.75;;;6.93;;
34767;SDS011;21755;43.608;1.236;2022-08-01T06:57:21;11.63;;;7.05;;
34767;SDS011;21755;43.608;1.236;2022-08-01T06:59:47;15.07;;;6.97;;
34767;SDS011;21755;43.608;1.236;2022-08-01T07:02:13;9.43;;;6.65;;
34767;SDS011;21755;43.608;1.236;2022-08-01T07:04:39;13.52;;;6.95;;
34767;SDS011;21755;43.608;1.236;2022-08-01T07:07:05;13.15;;;6.65;;
34767;SDS011;21755;43.608;1.236;2022-08-01T07:09:31;12.00;;;7.43;;
34767;SDS011;21755;43.608;1.236;2022-08-01T07:11:57;12.10;;;6.07;;
34767;SDS011;21755;43.608;1.236;2022-08-01T07:14:23;15.18;;;6.50;;
34767;SDS011;21755;43.608;1.236;2022-08-01T07:16:49;10.35;;;6.65;;
34767;SDS011;21755;43.608;1.236;2022-08-01T07:19:15;7.88;;;6.35;;
34767;SDS011;21755;43.608;1.236;2022-08-01T07:21:41;11.43;;;6.32;;
34767;SDS011;21755;43.608;1.236;2022-08-01T07:24:09;8.45;;;6.65;;
34767;SDS011;21755;43.608;1.236;2022-08-01T07:26:38;9.20;;;6.50;;
34767;SDS011;21755;43.608;1.236;2022-08-01T07:29:04;11.75;;;6.55;;
34767;SDS011;21755;43.608;1.236;2022-08-01T07:31:30;13.40;;;6.63;;
34767;SDS011;21755;43.608;1.236;2022-08-01T07:33:56;8.40;;;5.80;;
34767;SDS011;21755;43.608;1.236;2022-08-01T07:36:22;6.68;;;5.93;;
34767;SDS011;21755;43.608;1.236;2022-08-01T07:38:48;8.80;;;6.32;;
34767;SDS011;21755;43.608;1.236;2022-08-01T07:41:14;10.73;;;6.72;;
34767;SDS011;21755;43.608;1.236;2022-08-01T07:43:40;12.82;;;7.85;;
34767;SDS011;21755;43.608;1.236;2022-08-01T07:46:06;12.68;;;6.97;;
34767;SDS011;21755;43.608;1.236;2022-08-01T07:48:32;8.40;;;6.53;;
34767;SDS011;21755;43.608;1.236;2022-08-01T07:50:58;8.13;;;6.32;;
34767;SDS011;21755;43.608;1.236;2022-08-01T07:53:24;11.30;;;6.50;;
34767;SDS011;21755;43.608;1.236;2022-08-01T07:55:50;11.23;;;6.15;;
34767;SDS011;21755;43.608;1.236;2022-08-01T07:58:16;10.90;;;6.75;;
34767;SDS011;21755;43.608;1.236;2022-08-01T08:00:43;7.95;;;6.53;;
34767;SDS011;21755;43.608;1.236;2022-08-01T08:03:09;7.78;;;6.55;;
34767;SDS011;21755;43.608;1.236;2022-08-01T08:05:35;9.05;;;5.97;;
34767;SDS011;21755;43.608;1.236;2022-08-01T08:08:05;11.40;;;6.28;;
34767;SDS011;21755;43.608;1.236;2022-08-01T08:10:32;9.93;;;6.38;;
34767;SDS011;21755;43.608;1.236;2022-08-01T08:12:58;9.93;;;6.32;;
34767;SDS011;21755;43.608;1.236;2022-08-01T08:15:24;12.02;;;6.65;;
34767;SDS011;21755;43.608;1.236;2022-08-01T08:17:50;10.32;;;6.60;;
34767;SDS011;21755;43.608;1.236;2022-08-01T08:20:16;12.90;;;6.25;;
34767;SDS011;21755;43.608;1.236;2022-08-01T08:22:42;9.10;;;6.38;;
34767;SDS011;21755;43.608;1.236;2022-08-01T08:25:08;8.35;;;5.95;;
34767;SDS011;21755;43.608;1.236;2022-08-01T08:27:35;8.55;;;6.60;;
34767;SDS011;21755;43.608;1.236;2022-08-01T08:30:02;6.95;;;6.25;;
34767;SDS011;21755;43.608;1.236;2022-08-01T08:32:32;11.30;;;5.93;;
34767;SDS011;21755;43.608;1.236;2022-08-01T08:34:58;11.23;;;6.20;;
34767;SDS011;21755;43.608;1.236;2022-08-01T08:37:24;8.82;;;6.03;;
34767;SDS011;21755;43.608;1.236;2022-08-01T08:39:50;8.10;;;6.30;;
34767;SDS011;21755;43.608;1.236;2022-08-01T08:42:17;8.80;;;6.70;;
34767;SDS011;21755;43.608;1.236;2022-08-01T08:44:43;11.55;;;6.32;;
34767;SDS011;21755;43.608;1.236;2022-08-01T08:47:13;9.27;;;5.63;;
34767;SDS011;21755;43.608;1.236;2022-08-01T08:49:41;11.27;;;6.45;;
34767;SDS011;21755;43.608;1.236;2022-08-01T08:52:09;6.13;;;5.38;;
34767;SDS011;21755;43.608;1.236;2022-08-01T08:54:37;10.55;;;6.35;;
34767;SDS011;21755;43.608;1.236;2022-08-01T08:57:03;7.40;;;5.90;;
34767;SDS011;21755;43.608;1.236;2022-08-01T08:59:30;12.57;;;6.13;;
34767;SDS011;21755;43.608;1.236;2022-08-01T09:01:57;9.10;;;6.28;;
34767;SDS011;21755;43.608;1.236;2022-08-01T09:04:24;7.20;;;5.88;;
34767;SDS011;21755;43.608;1.236;2022-08-01T09:06:51;9.30;;;6.38;;
34767;SDS011;21755;43.608;1.236;2022-08-01T09:09:18;6.38;;;5.47;;
34767;SDS011;21755;43.608;1.236;2022-08-01T09:11:44;9.68;;;6.32;;
34767;SDS011;21755;43.608;1.236;2022-08-01T09:14:11;9.18;;;5.55;;
34767;SDS011;21755;43.608;1.236;2022-08-01T09:16:43;8.93;;;6.20;;
34767;SDS011;21755;43.608;1.236;2022-08-01T09:19:14;11.57;;;6.82;;
34767;SDS011;21755;43.608;1.236;2022-08-01T09:21:58;9.32;;;6.25;;
34767;SDS011;21755;43.608;1.236;2022-08-01T09:24:25;11.13;;;7.32;;
34767;SDS011;21755;43.608;1.236;2022-08-01T09:26:53;11.98;;;6.78;;
34767;SDS011;21755;43.608;1.236;2022-08-01T09:29:21;7.93;;;6.60;;
34767;SDS011;21755;43.608;1.236;2022-08-01T09:31:48;10.13;;;6.50;;
34767;SDS011;21755;43.608;1.236;2022-08-01T09:34:15;8.07;;;6.32;;
34767;SDS011;21755;43.608;1.236;2022-08-01T09:36:56;10.90;;;5.90;;
34767;SDS011;21755;43.608;1.236;2022-08-01T09:39:27;12.10;;;5.88;;
34767;SDS011;21755;43.608;1.236;2022-08-01T09:44:52;8.48;;;6.20;;
34767;SDS011;21755;43.608;1.236;2022-08-01T09:47:19;9.40;;;5.93;;
34767;SDS011;21755;43.608;1.236;2022-08-01T09:49:52;7.28;;;6.25;;
34767;SDS011;21755;43.608;1.236;2022-08-01T09:52:21;8.60;;;6.07;;
34767;SDS011;21755;43.608;1.236;2022-08-01T09:54:58;9.85;;;5.70;;
34767;SDS011;21755;43.608;1.236;2022-08-01T09:57:26;9.23;;;5.70;;
34767;SDS011;21755;43.608;1.236;2022-08-01T09:59:54;7.00;;;5.57;;
34767;SDS011;21755;43.608;1.236;2022-08-01T10:02:29;8.25;;;5.28;;
34767;SDS011;21755;43.608;1.236;2022-08-01T10:04:57;12.07;;;5.47;;
34767;SDS011;21755;43.608;1.236;2022-08-01T10:07:24;13.55;;;5.40;;
34767;SDS011;21755;43.608;1.236;2022-08-01T10:09:50;7.93;;;4.95;;
34767;SDS011;21755;43.608;1.236;2022-08-01T10:12:18;7.63;;;5.82;;
34767;SDS011;21755;43.608;1.236;2022-08-01T10:14:49;8.07;;;5.93;;
34767;SDS011;21755;43.608;1.236;2022-08-01T10:17:17;6.03;;;5.43;;
34767;SDS011;21755;43.608;1.236;2022-08-01T10:19:44;7.63;;;5.25;;
34767;SDS011;21755;43.608;1.236;2022-08-01T10:22:12;9.20;;;4.97;;
34767;SDS011;21755;43.608;1.236;2022-08-01T10:24:41;6.13;;;5.05;;
34767;SDS011;21755;43.608;1.236;2022-08-01T10:27:13;10.70;;;6.25;;
34767;SDS011;21755;43.608;1.236;2022-08-01T10:29:52;9.82;;;6.45;;
34767;SDS011;21755;43.608;1.236;2022-08-01T10:32:29;8.68;;;6.28;;
34767;SDS011;21755;43.608;1.236;2022-08-01T10:34:56;8.00;;;5.70;;
34767;SDS011;21755;43.608;1.236;2022-08-01T10:37:22;9.90;;;5.82;;
34767;SDS011;21755;43.608;1.236;2022-08-01T10:39:49;8.88;;;6.10;;
34767;SDS011;21755;43.608;1.236;2022-08-01T10:42:17;7.28;;;5.78;;
34767;SDS011;21755;43.608;1.236;2022-08-01T10:44:43;7.82;;;5.00;;
34767;SDS011;21755;43.608;1.236;2022-08-01T10:47:17;7.22;;;5.28;;
34767;SDS011;21755;43.608;1.236;2022-08-01T10:50:04;9.55;;;5.97;;
34767;SDS011;21755;43.608;1.236;2022-08-01T10:55:07;6.97;;;6.18;;
34767;SDS011;21755;43.608;1.236;2022-08-01T11:00:10;8.98;;;4.90;;
34767;SDS011;21755;43.608;1.236;2022-08-01T11:02:44;5.93;;;4.95;;
34767;SDS011;21755;43.608;1.236;2022-08-01T11:05:26;6.70;;;6.07;;
34767;SDS011;21755;43.608;1.236;2022-08-01T11:07:55;5.88;;;5.38;;
34767;SDS011;21755;43.608;1.236;2022-08-01T11:13:08;7.10;;;5.03;;
34767;SDS011;21755;43.608;1.236;2022-08-01T11:15:36;7.07;;;5.20;;
34767;SDS011;21755;43.608;1.236;2022-08-01T11:20:57;8.95;;;4.97;;
34767;SDS011;21755;43.608;1.236;2022-08-01T11:23:26;10.07;;;4.95;;
34767;SDS011;21755;43.608;1.236;2022-08-01T11:28:28;6.85;;;4.95;;
34767;SDS011;21755;43.608;1.236;2022-08-01T11:38:41;6.03;;;5.35;;
34767;SDS011;21755;43.608;1.236;2022-08-01T11:41:10;6.82;;;5.47;;
34767;SDS011;21755;43.608;1.236;2022-08-01T11:43:56;8.65;;;4.70;;
34767;SDS011;21755;43.608;1.236;2022-08-01T11:54:44;8.32;;;4.70;;
34767;SDS011;21755;43.608;1.236;2022-08-01T11:57:13;5.32;;;4.35;;
34767;SDS011;21755;43.608;1.236;2022-08-01T11:59:47;7.45;;;4.40;;
34767;SDS011;21755;43.608;1.236;2022-08-01T12:02:18;5.07;;;4.53;;
34767;SDS011;21755;43.608;1.236;2022-08-01T12:07:32;6.82;;;4.22;;
34767;SDS011;21755;43.608;1.236;2022-08-01T12:10:14;5.40;;;4.10;;
34767;SDS011;21755;43.608;1.236;2022-08-01T12:12:49;5.05;;;3.50;;
34767;SDS011;21755;43.608;1.236;2022-08-01T12:15:19;5.82;;;4.57;;
34767;SDS011;21755;43.608;1.236;2022-08-01T12:17:49;6.50;;;4.53;;
34767;SDS011;21755;43.608;1.236;2022-08-01T12:20:22;4.85;;;4.25;;
34767;SDS011;21755;43.608;1.236;2022-08-01T12:22:55;4.90;;;4.22;;
34767;SDS011;21755;43.608;1.236;2022-08-01T12:25:22;5.95;;;4.28;;
34767;SDS011;21755;43.608;1.236;2022-08-01T12:27:48;4.68;;;3.90;;
34767;SDS011;21755;43.608;1.236;2022-08-01T12:30:16;5.18;;;3.78;;
34767;SDS011;21755;43.608;1.236;2022-08-01T12:32:44;6.10;;;4.05;;
34767;SDS011;21755;43.608;1.236;2022-08-01T12:35:12;8.73;;;4.28;;
34767;SDS011;21755;43.608;1.236;2022-08-01T12:37:46;7.28;;;3.72;;
34767;SDS011;21755;43.608;1.236;2022-08-01T12:40:21;3.92;;;3.45;;
34767;SDS011;21755;43.608;1.236;2022-08-01T12:43:00;6.20;;;4.18;;
34767;SDS011;21755;43.608;1.236;2022-08-01T12:47:59;2.97;;;2.78;;
34767;SDS011;21755;43.608;1.236;2022-08-01T12:50:29;8.18;;;4.10;;
34767;SDS011;21755;43.608;1.236;2022-08-01T12:52:57;5.57;;;4.70;;
34767;SDS011;21755;43.608;1.236;2022-08-01T12:55:24;5.55;;;4.45;;
34767;SDS011;21755;43.608;1.236;2022-08-01T12:58:04;6.47;;;3.92;;
34767;SDS011;21755;43.608;1.236;2022-08-01T13:00:32;5.40;;;4.50;;
34767;SDS011;21755;43.608;1.236;2022-08-01T13:03:09;5.00;;;3.90;;
34767;SDS011;21755;43.608;1.236;2022-08-01T13:05:44;6.10;;;4.10;;
34767;SDS011;21755;43.608;1.236;2022-08-01T13:08:12;6.47;;;3.95;;
34767;SDS011;21755;43.608;1.236;2022-08-01T13:10:45;7.95;;;3.97;;
34767;SDS011;21755;43.608;1.236;2022-08-01T13:13:13;5.68;;;3.88;;
34767;SDS011;21755;43.608;1.236;2022-08-01T13:15:40;4.80;;;3.92;;
34767;SDS011;21755;43.608;1.236;2022-08-01T13:18:23;4.00;;;3.63;;
34767;SDS011;21755;43.608;1.236;2022-08-01T13:21:06;5.72;;;3.50;;
34767;SDS011;21755;43.608;1.236;2022-08-01T13:23:37;4.35;;;3.45;;
34767;SDS011;21755;43.608;1.236;2022-08-01T13:26:04;3.97;;;3.67;;
34767;SDS011;21755;43.608;1.236;2022-08-01T13:28:30;8.77;;;3.70;;
34767;SDS011;21755;43.608;1.236;2022-08-01T13:30:58;5.80;;;3.55;;
34767;SDS011;21755;43.608;1.236;2022-08-01T13:33:26;4.70;;;3.88;;
34767;SDS011;21755;43.608;1.236;2022-08-01T13:35:54;7.70;;;3.63;;
34767;SDS011;21755;43.608;1.236;2022-08-01T13:38:22;4.53;;;3.50;;
34767;SDS011;21755;43.608;1.236;2022-08-01T13:41:08;3.55;;;3.25;;
34767;SDS011;21755;43.608;1.236;2022-08-01T13:43:34;3.20;;;2.75;;
34767;SDS011;21755;43.608;1.236;2022-08-01T13:46:00;4.40;;;3.03;;
34767;SDS011;21755;43.608;1.236;2022-08-01T13:48:30;7.50;;;3.33;;
34767;SDS011;21755;43.608;1.236;2022-08-01T13:50:56;4.13;;;2.97;;
34767;SDS011;21755;43.608;1.236;2022-08-01T13:53:22;3.58;;;3.28;;
34767;SDS011;21755;43.608;1.236;2022-08-01T13:55:48;8.60;;;3.83;;
34767;SDS011;21755;43.608;1.236;2022-08-01T13:58:14;4.47;;;3.40;;
34767;SDS011;21755;43.608;1.236;2022-08-01T14:00:40;5.10;;;2.92;;
34767;SDS011;21755;43.608;1.236;2022-08-01T14:03:06;10.25;;;3.50;;
34767;SDS011;21755;43.608;1.236;2022-08-01T14:05:34;4.97;;;3.58;;
34767;SDS011;21755;43.608;1.236;2022-08-01T14:08:01;4.05;;;3.63;;
34767;SDS011;21755;43.608;1.236;2022-08-01T14:10:27;5.28;;;4.07;;
34767;SDS011;21755;43.608;1.236;2022-08-01T14:12:57;4.82;;;4.03;;
34767;SDS011;21755;43.608;1.236;2022-08-01T14:15:24;7.50;;;3.38;;
34767;SDS011;21755;43.608;1.236;2022-08-01T14:17:51;7.35;;;4.00;;
34767;SDS011;21755;43.608;1.236;2022-08-01T14:20:17;5.50;;;4.50;;
34767;SDS011;21755;43.608;1.236;2022-08-01T14:22:47;4.55;;;4.00;;
34767;SDS011;21755;43.608;1.236;2022-08-01T14:25:13;3.92;;;3.25;;
34767;SDS011;21755;43.608;1.236;2022-08-01T14:27:40;9.15;;;3.58;;
34767;SDS011;21755;43.608;1.236;2022-08-01T14:30:07;5.03;;;3.55;;
34767;SDS011;21755;43.608;1.236;2022-08-01T14:32:33;6.80;;;3.38;;
34767;SDS011;21755;43.608;1.236;2022-08-01T14:35:00;6.95;;;3.65;;
34767;SDS011;21755;43.608;1.236;2022-08-01T14:37:27;5.68;;;2.85;;
34767;SDS011;21755;43.608;1.236;2022-08-01T14:39:54;4.82;;;3.80;;
34767;SDS011;21755;43.608;1.236;2022-08-01T14:42:21;4.63;;;3.67;;
34767;SDS011;21755;43.608;1.236;2022-08-01T14:44:47;3.25;;;2.95;;
34767;SDS011;21755;43.608;1.236;2022-08-01T14:47:13;6.22;;;3.65;;
34767;SDS011;21755;43.608;1.236;2022-08-01T14:49:39;4.60;;;2.88;;
34767;SDS011;21755;43.608;1.236;2022-08-01T14:52:05;6.30;;;3.00;;
34767;SDS011;21755;43.608;1.236;2022-08-01T14:54:31;5.28;;;3.20;;
34767;SDS011;21755;43.608;1.236;2022-08-01T14:56:57;4.22;;;3.15;;
34767;SDS011;21755;43.608;1.236;2022-08-01T14:59:23;4.32;;;3.65;;
34767;SDS011;21755;43.608;1.236;2022-08-01T15:01:49;2.95;;;2.72;;
34767;SDS011;21755;43.608;1.236;2022-08-01T15:04:15;3.67;;;3.08;;
34767;SDS011;21755;43.608;1.236;2022-08-01T15:06:43;4.22;;;3.20;;
34767;SDS011;21755;43.608;1.236;2022-08-01T15:09:09;4.65;;;3.65;;
34767;SDS011;21755;43.608;1.236;2022-08-01T15:11:35;5.78;;;3.45;;
34767;SDS011;21755;43.608;1.236;2022-08-01T15:14:02;5.53;;;3.33;;
34767;SDS011;21755;43.608;1.236;2022-08-01T15:16:46;4.80;;;2.90;;
34767;SDS011;21755;43.608;1.236;2022-08-01T15:19:13;5.07;;;3.22;;
34767;SDS011;21755;43.608;1.236;2022-08-01T15:21:39;5.63;;;3.00;;
34767;SDS011;21755;43.608;1.236;2022-08-01T15:24:05;3.72;;;3.00;;
34767;SDS011;21755;43.608;1.236;2022-08-01T15:26:32;6.30;;;4.05;;
34767;SDS011;21755;43.608;1.236;2022-08-01T15:28:58;4.28;;;3.72;;
34767;SDS011;21755;43.608;1.236;2022-08-01T15:31:23;5.65;;;3.88;;
34767;SDS011;21755;43.608;1.236;2022-08-01T15:33:49;6.13;;;3.92;;
34767;SDS011;21755;43.608;1.236;2022-08-01T15:36:15;5.13;;;3.75;;
34767;SDS011;21755;43.608;1.236;2022-08-01T15:38:41;4.35;;;3.53;;
34767;SDS011;21755;43.608;1.236;2022-08-01T15:41:07;4.57;;;3.17;;
34767;SDS011;21755;43.608;1.236;2022-08-01T15:43:33;3.30;;;3.00;;